createdAt,value
2022-12-18T00:01:07.189Z,-10.22
2022-12-18T00:03:37.192Z,-10.29
2022-12-18T00:06:04.056Z,-10.31
2022-12-18T00:08:30.501Z,-10.26
2022-12-18T00:11:04.593Z,-10.23
2022-12-18T00:13:33.849Z,-10.28
2022-12-18T00:16:05.461Z,-10.28
2022-12-18T00:18:32.600Z,-10.27
2022-12-18T00:21:04.397Z,-10.27
2022-12-18T00:23:32.366Z,-10.23
2022-12-18T00:26:04.221Z,-10.19
2022-12-18T00:28:30.831Z,-10.17
2022-12-18T00:31:14.522Z,-10.18
2022-12-18T00:33:41.277Z,-10.18
2022-12-18T00:36:20.105Z,-10.29
2022-12-18T00:38:47.418Z,-10.38
2022-12-18T00:41:35.699Z,-10.35
2022-12-18T00:44:03.011Z,-10.30
2022-12-18T00:46:29.437Z,-10.29
2022-12-18T00:48:55.937Z,-10.26
2022-12-18T00:51:22.421Z,-10.15
2022-12-18T00:53:48.814Z,-10.07
2022-12-18T00:56:15.250Z,-10.05
2022-12-18T00:58:41.615Z,-10.03
2022-12-18T01:01:08.373Z,-9.95
2022-12-18T01:03:34.951Z,-9.83
2022-12-18T01:06:07.601Z,-9.73
2022-12-18T01:08:34.394Z,-9.63
2022-12-18T01:11:01.272Z,-9.49
2022-12-18T01:13:28.576Z,-9.33
2022-12-18T01:15:54.955Z,-9.20
2022-12-18T01:18:21.305Z,-9.10
2022-12-18T01:20:47.703Z,-9.01
2022-12-18T01:23:14.168Z,-8.91
2022-12-18T01:25:40.565Z,-8.82
2022-12-18T01:28:06.918Z,-8.87
2022-12-18T01:30:33.467Z,-8.87
2022-12-18T01:32:59.922Z,-8.88
2022-12-18T01:35:26.274Z,-8.84
2022-12-18T01:37:56.152Z,-8.82
2022-12-18T01:40:22.749Z,-8.76
2022-12-18T01:42:58.046Z,-8.71
2022-12-18T01:45:30.676Z,-8.65
2022-12-18T01:48:09.598Z,-8.60
2022-12-18T01:50:44.020Z,-8.60
2022-12-18T01:53:21.838Z,-8.54
2022-12-18T01:55:54.394Z,-8.47
2022-12-18T01:58:28.608Z,-8.40
2022-12-18T02:00:55.994Z,-8.32
2022-12-18T02:03:22.550Z,-8.24
2022-12-18T02:06:01.853Z,-8.17
2022-12-18T02:08:38.446Z,-8.12
2022-12-18T02:11:11.916Z,-8.03
2022-12-18T02:14:04.984Z,-7.88
2022-12-18T02:16:44.809Z,-7.76
2022-12-18T02:19:45.725Z,-7.67
2022-12-18T02:22:50.123Z,-7.59
2022-12-18T02:25:53.280Z,-7.52
2022-12-18T02:28:24.535Z,-7.47
2022-12-18T02:30:54.281Z,-7.37
2022-12-18T02:33:22.436Z,-7.25
2022-12-18T02:35:50.100Z,-7.15
2022-12-18T02:38:17.700Z,-7.04
2022-12-18T02:40:44.994Z,-6.98
2022-12-18T02:43:15.950Z,-6.99
2022-12-18T02:45:55.606Z,-7.07
2022-12-18T02:48:30.087Z,-6.98
2022-12-18T02:51:24.787Z,-6.87
2022-12-18T02:53:59.064Z,-6.81
2022-12-18T02:56:39.743Z,-6.74
2022-12-18T02:59:19.848Z,-6.72
2022-12-18T03:02:14.195Z,-6.73
2022-12-18T03:04:48.446Z,-6.73
2022-12-18T03:07:24.740Z,-6.67
2022-12-18T03:09:52.760Z,-6.68
2022-12-18T03:12:54.151Z,-6.63
2022-12-18T03:15:36.078Z,-6.63
2022-12-18T03:18:11.866Z,-6.64
2022-12-18T03:20:42.426Z,-6.64
2022-12-18T03:23:14.770Z,-6.59
2022-12-18T03:25:45.012Z,-6.62
2022-12-18T03:28:16.595Z,-6.60
2022-12-18T03:30:45.383Z,-6.58
2022-12-18T03:33:20.662Z,-6.56
2022-12-18T03:35:47.550Z,-6.47
2022-12-18T03:38:14.669Z,-6.40
2022-12-18T03:40:43.840Z,-6.34
2022-12-18T03:43:20.094Z,-6.28
2022-12-18T03:46:00.297Z,-6.27
2022-12-18T03:48:36.365Z,-6.21
2022-12-18T03:51:10.047Z,-6.12
2022-12-18T03:53:53.128Z,-6.09
2022-12-18T03:56:22.482Z,-6.12
2022-12-18T03:58:50.790Z,-6.06
2022-12-18T04:01:18.724Z,-5.97
2022-12-18T04:03:49.138Z,-5.92
2022-12-18T04:06:17.439Z,-5.85
2022-12-18T04:08:44.309Z,-5.83
2022-12-18T04:11:10.738Z,-5.77
2022-12-18T04:13:39.483Z,-5.74
2022-12-18T04:16:06.970Z,-5.72
2022-12-18T04:18:33.617Z,-5.69
2022-12-18T04:20:59.961Z,-5.72
2022-12-18T04:23:26.432Z,-5.69
2022-12-18T04:25:52.792Z,-5.67
2022-12-18T04:28:19.140Z,-5.66
2022-12-18T04:30:46.019Z,-5.70
2022-12-18T04:33:14.125Z,-5.72
2022-12-18T04:35:41.636Z,-5.76
2022-12-18T04:38:09.435Z,-5.74
2022-12-18T04:40:36.559Z,-5.70
2022-12-18T04:43:03.283Z,-5.63
2022-12-18T04:45:31.598Z,-5.57
2022-12-18T04:47:58.630Z,-5.49
2022-12-18T04:50:25.270Z,-5.44
2022-12-18T04:52:51.815Z,-5.40
2022-12-18T04:55:18.178Z,-5.42
2022-12-18T04:57:44.615Z,-5.39
2022-12-18T05:00:11.805Z,-5.35
2022-12-18T05:02:38.303Z,-5.30
2022-12-18T05:05:05.345Z,-5.29
2022-12-18T05:07:31.718Z,-5.25
2022-12-18T05:09:58.081Z,-5.21
2022-12-18T05:12:24.735Z,-5.19
2022-12-18T05:14:51.504Z,-5.20
2022-12-18T05:17:18.289Z,-5.19
2022-12-18T05:19:44.743Z,-5.25
2022-12-18T05:22:11.160Z,-5.19
2022-12-18T05:24:37.624Z,-5.13
2022-12-18T05:27:04.322Z,-5.07
2022-12-18T05:29:30.741Z,-5.14
2022-12-18T05:31:57.225Z,-5.12
2022-12-18T05:34:23.638Z,-5.07
2022-12-18T05:36:49.962Z,-4.98
2022-12-18T05:39:16.397Z,-4.93
2022-12-18T05:41:42.811Z,-4.87
2022-12-18T05:44:09.877Z,-4.81
2022-12-18T05:46:37.314Z,-4.72
2022-12-18T05:49:03.775Z,-4.65
2022-12-18T05:51:30.185Z,-4.61
2022-12-18T05:53:56.533Z,-4.65
2022-12-18T05:56:23.745Z,-4.68
2022-12-18T05:58:53.795Z,-4.68
2022-12-18T06:01:24.400Z,-4.70
2022-12-18T06:03:50.986Z,-4.76
2022-12-18T06:06:20.759Z,-4.71
2022-12-18T06:08:47.558Z,-4.61
2022-12-18T06:11:16.830Z,-4.51
2022-12-18T06:13:43.216Z,-4.58
2022-12-18T06:16:09.637Z,-4.58
2022-12-18T06:18:39.224Z,-4.51
2022-12-18T06:21:05.804Z,-4.48
2022-12-18T06:23:32.192Z,-4.58
2022-12-18T06:25:58.904Z,-4.56
2022-12-18T06:28:25.306Z,-4.51
2022-12-18T06:30:51.942Z,-4.54
2022-12-18T06:33:18.492Z,-4.45
2022-12-18T06:35:44.857Z,-4.50
2022-12-18T06:38:11.274Z,-4.48
2022-12-18T06:40:39.829Z,-4.46
2022-12-18T06:43:07.142Z,-4.37
2022-12-18T06:45:33.722Z,-4.32
2022-12-18T06:48:00.228Z,-4.33
2022-12-18T06:50:26.660Z,-4.36
2022-12-18T06:52:53.105Z,-4.38
2022-12-18T06:55:19.498Z,-4.34
2022-12-18T06:57:45.894Z,-4.34
2022-12-18T07:00:12.571Z,-4.38
2022-12-18T07:02:39.160Z,-4.32
2022-12-18T07:05:10.452Z,-4.34
2022-12-18T07:07:37.152Z,-4.37
2022-12-18T07:10:03.890Z,-4.43
2022-12-18T07:12:30.402Z,-4.50
2022-12-18T07:14:56.777Z,-4.48
2022-12-18T07:17:23.192Z,-4.53
2022-12-18T07:19:49.639Z,-4.47
2022-12-18T07:22:15.975Z,-4.46
2022-12-18T07:24:42.302Z,-4.48
2022-12-18T07:27:08.759Z,-4.45
2022-12-18T07:29:36.636Z,-4.50
2022-12-18T07:32:03.052Z,-4.49
2022-12-18T07:34:29.590Z,-4.44
2022-12-18T07:36:55.972Z,-4.32
2022-12-18T07:39:22.450Z,-4.43
2022-12-18T07:42:08.774Z,-4.34
2022-12-18T07:44:35.159Z,-4.29
2022-12-18T07:47:01.609Z,-4.22
2022-12-18T07:49:28.748Z,-4.19
2022-12-18T07:51:57.072Z,-4.16
2022-12-18T07:54:24.514Z,-4.09
2022-12-18T07:56:51.958Z,-4.03
2022-12-18T07:59:18.917Z,-3.99
2022-12-18T08:01:45.667Z,-3.89
2022-12-18T08:04:13.450Z,-3.86
2022-12-18T08:06:42.609Z,-3.93
2022-12-18T08:09:12.749Z,-3.94
2022-12-18T08:11:39.281Z,-3.86
2022-12-18T08:14:05.657Z,-3.77
2022-12-18T08:16:32.208Z,-3.66
2022-12-18T08:18:58.698Z,-3.55
2022-12-18T08:21:27.728Z,-3.47
2022-12-18T08:23:56.163Z,-3.44
2022-12-18T08:26:23.497Z,-3.43
2022-12-18T08:28:51.483Z,-3.48
2022-12-18T08:31:18.928Z,-3.50
2022-12-18T08:33:45.456Z,-3.48
2022-12-18T08:36:12.001Z,-3.47
2022-12-18T08:38:38.401Z,-3.44
2022-12-18T08:41:07.622Z,-3.41
2022-12-18T08:43:53.165Z,-3.40
2022-12-18T08:46:20.771Z,-3.39
2022-12-18T08:48:47.685Z,-3.34
2022-12-18T08:51:14.447Z,-3.34
2022-12-18T08:53:41.153Z,-3.22
2022-12-18T08:56:08.688Z,-3.11
2022-12-18T08:58:35.144Z,-2.99
2022-12-18T09:01:03.078Z,-2.94
2022-12-18T09:03:29.792Z,-2.92
2022-12-18T09:05:56.353Z,-2.95
2022-12-18T09:08:22.920Z,-3.00
2022-12-18T09:10:51.060Z,-2.96
2022-12-18T09:13:18.255Z,-2.89
2022-12-18T09:15:47.161Z,-2.96
2022-12-18T09:18:15.497Z,-2.95
2022-12-18T09:20:42.015Z,-2.96
2022-12-18T09:23:10.013Z,-2.89
2022-12-18T09:25:37.920Z,-2.71
2022-12-18T09:28:17.287Z,-2.60
2022-12-18T09:30:46.856Z,-2.63
2022-12-18T09:33:13.591Z,-2.57
2022-12-18T09:35:42.734Z,-2.50
2022-12-18T09:38:13.288Z,-2.54
2022-12-18T09:40:44.960Z,-2.49
2022-12-18T09:43:30.972Z,-2.38
2022-12-18T09:46:05.192Z,-2.39
2022-12-18T09:48:35.550Z,-2.53
2022-12-18T09:51:09.850Z,-2.55
2022-12-18T09:53:40.995Z,-2.59
2022-12-18T09:56:16.952Z,-2.62
2022-12-18T09:58:54.066Z,-2.52
2022-12-18T10:01:23.941Z,-2.33
2022-12-18T10:03:51.858Z,-2.28
2022-12-18T10:06:42.817Z,-2.22
2022-12-18T10:09:18.719Z,-2.11
2022-12-18T10:11:54.298Z,-2.13
2022-12-18T10:14:41.669Z,-2.06
2022-12-18T10:17:23.764Z,-2.20
2022-12-18T10:19:53.591Z,-2.30
2022-12-18T10:22:57.169Z,-2.24
2022-12-18T10:25:34.755Z,-2.29
2022-12-18T10:28:15.351Z,-2.35
2022-12-18T10:30:43.117Z,-2.38
2022-12-18T10:33:17.691Z,-2.36
2022-12-18T10:35:45.255Z,-2.33
2022-12-18T10:38:14.344Z,-2.27
2022-12-18T10:40:53.094Z,-2.39
2022-12-18T10:43:35.807Z,-2.42
2022-12-18T10:46:03.869Z,-2.51
2022-12-18T10:48:31.640Z,-2.53
2022-12-18T10:51:13.991Z,-2.51
2022-12-18T10:53:42.743Z,-2.58
2022-12-18T10:56:09.876Z,-2.72
2022-12-18T10:58:38.732Z,-2.74
2022-12-18T11:01:14.827Z,-2.66
2022-12-18T11:03:46.680Z,-2.55
2022-12-18T11:06:25.438Z,-2.58
2022-12-18T11:09:07.860Z,-2.49
2022-12-18T11:11:38.900Z,-2.50
2022-12-18T11:14:09.196Z,-2.54
2022-12-18T11:16:52.969Z,-2.40
2022-12-18T11:19:38.787Z,-2.34
2022-12-18T11:22:21.478Z,-2.33
2022-12-18T11:25:30.124Z,-2.33
2022-12-18T11:27:53.903Z,-2.41
2022-12-18T11:30:31.470Z,-2.30
2022-12-18T11:33:10.559Z,-2.25
2022-12-18T11:36:03.750Z,-2.16
2022-12-18T11:38:40.772Z,-2.42
2022-12-18T11:41:50.376Z,-2.30
2022-12-18T11:44:25.139Z,-2.30
2022-12-18T11:46:58.683Z,-2.35
2022-12-18T11:49:35.586Z,-2.30
2022-12-18T11:52:10.171Z,-2.24
2022-12-18T11:54:37.113Z,-2.08
2022-12-18T11:57:35.906Z,-1.86
2022-12-18T12:00:16.584Z,-1.74
2022-12-18T12:03:23.395Z,-1.84
2022-12-18T12:06:04.346Z,-1.69
2022-12-18T12:09:05.988Z,-1.70
2022-12-18T12:11:49.450Z,-1.71
2022-12-18T12:14:33.740Z,-1.68
2022-12-18T12:17:08.915Z,-1.61
2022-12-18T12:20:07.571Z,-1.62
2022-12-18T12:23:02.022Z,-1.63
2022-12-18T12:25:58.200Z,-1.62
2022-12-18T12:28:56.153Z,-1.53
2022-12-18T12:31:50.420Z,-1.52
2022-12-18T12:34:49.496Z,-1.37
2022-12-18T12:37:49.785Z,-1.37
2022-12-18T12:40:50.863Z,-1.38
2022-12-18T12:43:20.638Z,-1.37
2022-12-18T12:45:53.367Z,-1.30
2022-12-18T12:48:34.086Z,-1.29
2022-12-18T12:51:05.132Z,-1.28
2022-12-18T12:53:36.754Z,-1.49
2022-12-18T12:56:06.612Z,-1.48
2022-12-18T12:58:55.562Z,-1.66
2022-12-18T13:01:42.996Z,-1.67
2022-12-18T13:04:22.817Z,-1.67
2022-12-18T13:07:00.742Z,-1.77
2022-12-18T13:09:34.528Z,-1.81
2022-12-18T13:12:23.830Z,-1.68
2022-12-18T13:14:50.411Z,-1.63
2022-12-18T13:17:20.812Z,-1.77
2022-12-18T13:19:52.020Z,-1.82
2022-12-18T13:22:34.888Z,-1.89
2022-12-18T13:25:01.668Z,-1.79
2022-12-18T13:27:46.518Z,-1.64
2022-12-18T13:30:32.561Z,-1.64
2022-12-18T13:33:14.294Z,-1.63
2022-12-18T13:35:51.868Z,-1.93
2022-12-18T13:38:27.113Z,-1.97
2022-12-18T13:41:01.151Z,-2.01
2022-12-18T13:43:29.463Z,-1.93
2022-12-18T13:46:19.155Z,-1.89
2022-12-18T13:48:57.021Z,-1.66
2022-12-18T13:51:25.309Z,-1.68
2022-12-18T13:53:55.267Z,-1.71
2022-12-18T13:56:29.422Z,-1.73
2022-12-18T13:59:17.604Z,-1.86
2022-12-18T14:01:47.967Z,-1.96
2022-12-18T14:04:22.750Z,-2.00
2022-12-18T14:06:53.019Z,-1.90
2022-12-18T14:09:26.044Z,-1.88
2022-12-18T14:12:14.252Z,-1.94
2022-12-18T14:14:44.214Z,-2.07
2022-12-18T14:17:12.827Z,-2.16
2022-12-18T14:19:43.622Z,-2.27
2022-12-18T14:22:17.719Z,-2.33
2022-12-18T14:24:44.058Z,-2.28
2022-12-18T14:27:20.845Z,-2.35
2022-12-18T14:29:47.291Z,-2.34
2022-12-18T14:32:18.699Z,-2.42
2022-12-18T14:34:55.395Z,-2.54
2022-12-18T14:37:26.946Z,-2.56
2022-12-18T14:39:58.953Z,-2.65
2022-12-18T14:42:29.045Z,-2.67
2022-12-18T14:45:39.085Z,-2.80
2022-12-18T14:48:28.702Z,-2.87
2022-12-18T14:51:04.471Z,-2.85
2022-12-18T14:53:47.574Z,-2.94
2022-12-18T14:56:28.896Z,-2.94
2022-12-18T14:58:59.509Z,-3.00
2022-12-18T15:01:27.544Z,-3.12
2022-12-18T15:03:55.492Z,-3.14
2022-12-18T15:06:28.546Z,-3.22
2022-12-18T15:08:55.470Z,-3.33
2022-12-18T15:11:48.272Z,-3.43
2022-12-18T15:14:44.181Z,-3.46
2022-12-18T15:17:22.870Z,-3.48
2022-12-18T15:19:54.272Z,-3.60
2022-12-18T15:22:33.972Z,-3.64
2022-12-18T15:25:01.176Z,-3.76
2022-12-18T15:27:29.610Z,-3.78
2022-12-18T15:30:02.268Z,-3.78
2022-12-18T15:32:28.717Z,-3.84
2022-12-18T15:35:15.933Z,-3.87
2022-12-18T15:37:43.450Z,-3.87
2022-12-18T15:40:14.773Z,-3.86
2022-12-18T15:43:03.177Z,-3.90
2022-12-18T15:45:29.736Z,-3.92
2022-12-18T15:47:56.276Z,-3.93
2022-12-18T15:50:23.070Z,-4.07
2022-12-18T15:52:52.118Z,-4.05
2022-12-18T15:55:40.097Z,-4.07
2022-12-18T15:58:08.204Z,-4.02
2022-12-18T16:00:37.306Z,-3.96
2022-12-18T16:03:04.952Z,-4.03
2022-12-18T16:05:32.401Z,-4.05
2022-12-18T16:07:59.225Z,-4.02
2022-12-18T16:10:27.167Z,-4.11
2022-12-18T16:12:53.574Z,-4.17
2022-12-18T16:15:24.452Z,-4.12
2022-12-18T16:17:51.163Z,-4.18
2022-12-18T16:20:22.314Z,-4.13
2022-12-18T16:22:49.771Z,-4.20
2022-12-18T16:25:22.519Z,-4.27
2022-12-18T16:27:49.322Z,-4.30
2022-12-18T16:30:19.331Z,-4.30
2022-12-18T16:32:45.806Z,-4.29
2022-12-18T16:35:14.648Z,-4.39
2022-12-18T16:37:42.026Z,-4.31
2022-12-18T16:40:11.220Z,-4.29
2022-12-18T16:42:39.102Z,-4.28
2022-12-18T16:45:06.936Z,-4.37
2022-12-18T16:47:33.504Z,-4.36
2022-12-18T16:49:59.950Z,-4.42
2022-12-18T16:52:26.791Z,-4.43
2022-12-18T16:54:53.222Z,-4.47
2022-12-18T16:57:21.174Z,-4.43
2022-12-18T16:59:51.148Z,-4.40
2022-12-18T17:02:23.679Z,-4.37
2022-12-18T17:04:53.324Z,-4.37
2022-12-18T17:07:19.829Z,-4.39
2022-12-18T17:09:46.204Z,-4.41
2022-12-18T17:12:12.650Z,-4.42
2022-12-18T17:14:39.152Z,-4.42
2022-12-18T17:17:22.603Z,-4.40
2022-12-18T17:19:50.342Z,-4.39
2022-12-18T17:22:16.729Z,-4.38
2022-12-18T17:24:43.119Z,-4.37
2022-12-18T17:27:09.599Z,-4.45
2022-12-18T17:29:36.139Z,-4.42
2022-12-18T17:32:02.653Z,-4.40
2022-12-18T17:34:30.022Z,-4.38
2022-12-18T17:36:57.132Z,-4.44
2022-12-18T17:39:23.619Z,-4.53
2022-12-18T17:41:50.050Z,-4.58
2022-12-18T17:44:17.479Z,-4.57
2022-12-18T17:46:44.473Z,-4.58
2022-12-18T17:49:11.562Z,-4.58
2022-12-18T17:51:38.049Z,-4.67
2022-12-18T17:54:05.354Z,-4.67
2022-12-18T17:56:32.812Z,-4.60
2022-12-18T17:58:59.863Z,-4.49
2022-12-18T18:01:26.850Z,-4.42
2022-12-18T18:03:55.990Z,-4.33
2022-12-18T18:06:23.667Z,-4.26
2022-12-18T18:08:50.672Z,-4.22
2022-12-18T18:11:38.027Z,-4.22
2022-12-18T18:14:10.939Z,-4.20
2022-12-18T18:16:42.704Z,-4.32
2022-12-18T18:19:15.180Z,-4.38
2022-12-18T18:21:43.873Z,-4.47
2022-12-18T18:24:12.931Z,-4.50
2022-12-18T18:26:41.578Z,-4.56
2022-12-18T18:29:09.262Z,-4.65
2022-12-18T18:31:40.176Z,-4.56
2022-12-18T18:34:08.273Z,-4.52
2022-12-18T18:36:34.854Z,-4.50
2022-12-18T18:39:02.189Z,-4.48
2022-12-18T18:41:30.406Z,-4.47
2022-12-18T18:43:58.244Z,-4.46
2022-12-18T18:46:25.609Z,-4.49
2022-12-18T18:48:52.146Z,-4.52
2022-12-18T18:51:21.424Z,-4.53
2022-12-18T18:53:50.354Z,-4.55
2022-12-18T18:56:56.718Z,-4.56
2022-12-18T18:59:06.757Z,-4.58
2022-12-18T19:01:33.282Z,-4.59
2022-12-18T19:04:01.155Z,-4.54
2022-12-18T19:06:28.554Z,-4.61
2022-12-18T19:08:57.023Z,-4.68
2022-12-18T19:11:43.621Z,-4.59
2022-12-18T19:14:12.449Z,-4.51
2022-12-18T19:16:39.341Z,-4.45
2022-12-18T19:19:06.390Z,-4.47
2022-12-18T19:21:34.644Z,-4.47
2022-12-18T19:24:01.619Z,-4.44
2022-12-18T19:26:28.953Z,-4.39
2022-12-18T19:29:08.291Z,-4.36
2022-12-18T19:31:37.010Z,-4.34
2022-12-18T19:34:07.765Z,-4.28
2022-12-18T19:36:37.147Z,-4.25
2022-12-18T19:39:12.634Z,-4.30
2022-12-18T19:41:39.700Z,-4.26
2022-12-18T19:44:08.266Z,-4.22
2022-12-18T19:46:35.468Z,-4.28
2022-12-18T19:49:02.352Z,-4.26
2022-12-18T19:51:30.715Z,-4.22
2022-12-18T19:53:59.297Z,-4.24
2022-12-18T19:56:29.384Z,-4.13
2022-12-18T19:58:55.924Z,-4.08
2022-12-18T20:01:24.924Z,-4.03
2022-12-18T20:03:52.751Z,-4.01
2022-12-18T20:06:32.922Z,-4.06
2022-12-18T20:09:03.083Z,-4.09
2022-12-18T20:11:30.733Z,-4.11
2022-12-18T20:13:58.242Z,-4.04
2022-12-18T20:16:24.746Z,-3.98
2022-12-18T20:18:51.395Z,-4.01
2022-12-18T20:21:18.808Z,-4.00
2022-12-18T20:23:46.168Z,-4.10
2022-12-18T20:26:12.952Z,-4.11
2022-12-18T20:28:40.656Z,-4.16
2022-12-18T20:31:08.380Z,-4.18
2022-12-18T20:33:37.193Z,-4.22
2022-12-18T20:36:06.266Z,-4.19
2022-12-18T20:38:34.192Z,-4.16
2022-12-18T20:41:02.498Z,-4.19
2022-12-18T20:43:29.671Z,-4.18
2022-12-18T20:46:06.795Z,-4.19
2022-12-18T20:48:33.625Z,-4.15
2022-12-18T20:51:02.098Z,-4.12
2022-12-18T20:53:30.469Z,-4.12
2022-12-18T20:55:56.890Z,-4.09
2022-12-18T20:58:23.366Z,-4.02
2022-12-18T21:00:50.183Z,-3.96
2022-12-18T21:03:17.799Z,-4.02
2022-12-18T21:05:44.240Z,-4.03
2022-12-18T21:08:10.712Z,-3.98
2022-12-18T21:10:39.182Z,-3.97
2022-12-18T21:13:07.282Z,-3.97
2022-12-18T21:15:35.926Z,-4.02
2022-12-18T21:18:02.306Z,-4.03
2022-12-18T21:20:28.694Z,-4.01
2022-12-18T21:22:55.541Z,-3.99
2022-12-18T21:25:33.008Z,-4.02
2022-12-18T21:27:59.351Z,-4.00
2022-12-18T21:30:26.017Z,-4.12
2022-12-18T21:32:52.425Z,-4.08
2022-12-18T21:35:18.768Z,-4.12
2022-12-18T21:37:46.926Z,-4.14
2022-12-18T21:40:13.803Z,-4.10
2022-12-18T21:42:58.690Z,-4.15
2022-12-18T21:45:25.052Z,-4.16
2022-12-18T21:47:51.474Z,-4.21
2022-12-18T21:50:17.957Z,-4.17
2022-12-18T21:52:44.436Z,-4.20
2022-12-18T21:55:10.836Z,-4.17
2022-12-18T21:57:39.990Z,-4.16
2022-12-18T22:00:10.647Z,-4.14
2022-12-18T22:02:43.420Z,-4.15
2022-12-18T22:05:09.851Z,-4.14
2022-12-18T22:07:37.551Z,-4.07
2022-12-18T22:10:04.166Z,-4.22
2022-12-18T22:12:43.600Z,-4.17
2022-12-18T22:15:15.737Z,-4.13
2022-12-18T22:17:48.241Z,-4.13
2022-12-18T22:20:15.888Z,-4.07
2022-12-18T22:22:42.313Z,-3.93
2022-12-18T22:25:10.035Z,-3.94
2022-12-18T22:27:36.958Z,-3.95
2022-12-18T22:30:04.429Z,-3.97
2022-12-18T22:32:32.539Z,-3.95
2022-12-18T22:35:05.910Z,-3.91
2022-12-18T22:37:33.787Z,-3.86
2022-12-18T22:40:02.819Z,-3.84
2022-12-18T22:42:30.068Z,-3.80
2022-12-18T22:44:56.453Z,-3.77
2022-12-18T22:47:27.881Z,-3.78
2022-12-18T22:49:55.994Z,-3.80
2022-12-18T22:52:23.435Z,-3.83
2022-12-18T22:54:51.429Z,-3.81
2022-12-18T22:57:20.094Z,-3.75
2022-12-18T22:59:46.433Z,-3.84
2022-12-18T23:02:12.884Z,-3.78
2022-12-18T23:04:39.824Z,-3.79
2022-12-18T23:07:07.370Z,-3.84
2022-12-18T23:09:34.405Z,-3.83
2022-12-18T23:12:01.202Z,-3.82
2022-12-18T23:14:28.449Z,-3.81
2022-12-18T23:16:55.099Z,-3.78
2022-12-18T23:19:21.573Z,-3.71
2022-12-18T23:21:50.644Z,-3.66
2022-12-18T23:24:17.117Z,-3.60
2022-12-18T23:26:43.515Z,-3.51
2022-12-18T23:29:09.986Z,-3.50
2022-12-18T23:31:38.773Z,-3.58
2022-12-18T23:34:06.871Z,-3.61
2022-12-18T23:36:46.055Z,-3.52
2022-12-18T23:39:28.571Z,-3.47
2022-12-18T23:41:59.826Z,-3.47
2022-12-18T23:44:26.467Z,-3.50
2022-12-18T23:46:53.060Z,-3.65
2022-12-18T23:49:19.509Z,-3.72
2022-12-18T23:51:45.869Z,-3.71
2022-12-18T23:54:12.243Z,-3.71
2022-12-18T23:56:38.702Z,-3.67
2022-12-18T23:59:05.067Z,-3.67
